Time;durP1;ratioP1;P1;durP2;ratioP2;P2;SDS_P1;SDS_P2;PMS_P1;PMS_P2;Temp;Humidity;BMP_temperature;BMP_pressure;BME280_temperature;BME280_humidity;BME280_pressure;Samples;Min_cycle;Max_cycle;Signal;HPM_P1;HPM_P2
2021/12/16 00:01:41;;;;;;;0.00;0.00;;;;;;;;;;1716253;28;20518;-72
2021/12/16 00:02:06;;;;;;;0.00;0.00;;;;;;;;;;1726820;28;20242;-72
2021/12/16 00:03:24;;;;;;;0.00;0.00;;;;;;;;;;1724917;28;20542;-72
2021/12/16 00:05:59;;;;;;;0.00;0.00;;;;;;;;;;1728250;28;20188;-72
2021/12/16 00:08:19;;;;;;;0.00;0.00;;;;;;;;;;1725126;28;20531;-72
2021/12/16 00:09:14;;;;;;;0.00;0.00;;;;;;;;;;1727711;28;20203;-72
2021/12/16 00:10:19;;;;;;;0.00;0.00;;;;;;;;;;1725673;28;20267;-72
2021/12/16 00:11:22;;;;;;;0.00;0.00;;;;;;;;;;1732661;28;20672;-72
2021/12/16 00:30:12;;;;;;;0.00;0.00;;;;;;;;;;1716771;28;20579;-73
2021/12/16 00:31:19;;;;;;;0.00;0.00;;;;;;;;;;1713334;28;20618;-72
2021/12/16 00:32:27;;;;;;;0.00;0.00;;;;;;;;;;1712249;28;20202;-73
2021/12/16 00:33:33;;;;;;;0.00;0.00;;;;;;;;;;1711147;28;20774;-73
2021/12/16 00:34:27;;;;;;;0.00;0.00;;;;;;;;;;1713719;28;20186;-72
2021/12/16 00:35:20;;;;;;;0.00;0.00;;;;;;;;;;1716299;28;20220;-72
2021/12/16 00:36:12;;;;;;;0.00;0.00;;;;;;;;;;1727711;28;20673;-72
2021/12/16 00:37:05;;;;;;;0.00;0.00;;;;;;;;;;1734105;28;20294;-72
2021/12/16 00:37:57;;;;;;;0.00;0.00;;;;;;;;;;1737684;28;20265;-72
2021/12/16 00:38:49;;;;;;;0.00;0.00;;;;;;;;;;1736794;28;20211;-72
2021/12/16 00:39:41;;;;;;;0.00;0.00;;;;;;;;;;1732694;28;20218;-72
2021/12/16 00:40:32;;;;;;;0.00;0.00;;;;;;;;;;1733073;28;20214;-72
2021/12/16 00:41:25;;;;;;;0.00;0.00;;;;;;;;;;1738479;28;20209;-72
2021/12/16 00:42:30;;;;;;;0.00;0.00;;;;;;;;;;1735397;28;20265;-72
2021/12/16 00:43:30;;;;;;;0.00;0.00;;;;;;;;;;1732176;28;20582;-72
2021/12/16 00:44:47;;;;;;;0.00;0.00;;;;;;;;;;1737031;28;20264;-72
2021/12/16 00:45:45;;;;;;;0.00;0.00;;;;;;;;;;1736070;28;20230;-72
2021/12/16 00:46:57;;;;;;;0.00;0.00;;;;;;;;;;1732015;28;20204;-72
2021/12/16 00:47:56;;;;;;;0.00;0.00;;;;;;;;;;1731796;28;20291;-72
2021/12/16 00:49:06;;;;;;;0.00;0.00;;;;;;;;;;1733257;28;20200;-72
2021/12/16 00:50:20;;;;;;;0.00;0.00;;;;;;;;;;1731822;28;20196;-72
2021/12/16 00:54:46;;;;;;;0.00;0.00;;;;;;;;;;1734101;28;20282;-72
2021/12/16 00:55:46;;;;;;;0.00;0.00;;;;;;;;;;1731701;28;20618;-72
2021/12/16 00:56:38;;;;;;;0.00;0.00;;;;;;;;;;1738685;28;20203;-72
2021/12/16 00:57:31;;;;;;;0.00;0.00;;;;;;;;;;1734256;28;20262;-72
2021/12/16 00:58:27;;;;;;;0.00;0.00;;;;;;;;;;1731460;28;20591;-72
2021/12/16 00:59:20;;;;;;;0.00;0.00;;;;;;;;;;1735184;28;20211;-72
2021/12/16 01:00:14;;;;;;;0.00;0.00;;;;;;;;;;1739024;28;20229;-72
2021/12/16 01:01:14;;;;;;;0.00;0.00;;;;;;;;;;1731999;28;20220;-72
2021/12/16 01:02:19;;;;;;;0.00;0.00;;;;;;;;;;1733392;28;20638;-72
2021/12/16 01:03:21;;;;;;;0.00;0.00;;;;;;;;;;1731976;28;20452;-72
2021/12/16 01:04:40;;;;;;;0.00;0.00;;;;;;;;;;1732900;28;20241;-72
2021/12/16 01:07:00;;;;;;;0.00;0.00;;;;;;;;;;1732080;28;20184;-72
2021/12/16 01:08:12;;;;;;;0.00;0.00;;;;;;;;;;1733171;28;20273;-72
2021/12/16 01:34:05;;;;;;;0.00;0.00;;;;;;;;;;1735912;28;20258;-72
2021/12/16 01:35:03;;;;;;;0.00;0.00;;;;;;;;;;1732847;28;20295;-72
2021/12/16 01:36:10;;;;;;;0.00;0.00;;;;;;;;;;1733789;28;20319;-72
2021/12/16 01:37:34;;;;;;;0.00;0.00;;;;;;;;;;1734330;28;20207;-72
2021/12/16 01:39:14;;;;;;;0.00;0.00;;;;;;;;;;1732292;28;20199;-72
2021/12/16 01:40:23;;;;;;;0.05;0.05;;;;;;;;;;1732353;28;20234;-72
2021/12/16 01:47:35;;;;;;;0.00;0.00;;;;;;;;;;1730354;28;20191;-72
2021/12/16 01:49:48;;;;;;;0.00;0.00;;;;;;;;;;1731243;28;20193;-72
2021/12/16 01:50:47;;;;;;;0.00;0.00;;;;;;;;;;1729790;28;20239;-72
2021/12/16 01:51:54;;;;;;;0.00;0.00;;;;;;;;;;1738994;28;20241;-72
2021/12/16 01:55:17;;;;;;;0.00;0.00;;;;;;;;;;1716839;28;20201;-72
2021/12/16 01:56:18;;;;;;;0.00;0.00;;;;;;;;;;1730308;28;20322;-72
2021/12/16 01:57:12;;;;;;;0.00;0.00;;;;;;;;;;1736048;28;20305;-72
2021/12/16 01:58:11;;;;;;;0.00;0.00;;;;;;;;;;1738612;28;20210;-72
2021/12/16 01:59:06;;;;;;;0.00;0.00;;;;;;;;;;1736487;28;20345;-72
2021/12/16 02:00:01;;;;;;;0.00;0.00;;;;;;;;;;1732651;28;20254;-72
2021/12/16 02:00:57;;;;;;;0.03;0.03;;;;;;;;;;1733671;28;20226;-72
2021/12/16 02:01:49;;;;;;;0.00;0.00;;;;;;;;;;1733179;28;20596;-72
2021/12/16 02:02:45;;;;;;;0.00;0.00;;;;;;;;;;1737899;28;20257;-72
2021/12/16 02:03:42;;;;;;;0.00;0.00;;;;;;;;;;1738321;28;20214;-72
2021/12/16 02:04:41;;;;;;;0.00;0.00;;;;;;;;;;1734330;28;20227;-72
2021/12/16 02:05:55;;;;;;;0.00;0.00;;;;;;;;;;1733503;28;20852;-72
2021/12/16 02:07:02;;;;;;;0.00;0.00;;;;;;;;;;1732956;28;20191;-72
2021/12/16 02:08:18;;;;;;;0.00;0.00;;;;;;;;;;1732080;28;20203;-72
2021/12/16 02:09:13;;;;;;;0.00;0.00;;;;;;;;;;1736011;28;20199;-72
2021/12/16 02:10:07;;;;;;;0.00;0.00;;;;;;;;;;1739080;28;20187;-72
2021/12/16 02:11:16;;;;;;;0.00;0.00;;;;;;;;;;1733762;28;20573;-72
2021/12/16 02:12:18;;;;;;;0.00;0.00;;;;;;;;;;1733965;28;20196;-72
2021/12/16 02:13:31;;;;;;;0.00;0.00;;;;;;;;;;1733069;28;20246;-72
2021/12/16 02:28:48;;;;;;;0.00;0.00;;;;;;;;;;1717972;28;20300;-71
2021/12/16 02:29:55;;;;;;;0.00;0.00;;;;;;;;;;1732835;28;20623;-71
2021/12/16 02:32:01;;;;;;;0.00;0.00;;;;;;;;;;1733036;28;20198;-71
2021/12/16 02:33:08;;;;;;;0.00;0.00;;;;;;;;;;1737456;28;20298;-71
2021/12/16 02:34:20;;;;;;;0.10;0.10;;;;;;;;;;1736004;28;20203;-71
2021/12/16 02:35:27;;;;;;;0.00;0.00;;;;;;;;;;1733260;28;20271;-71
2021/12/16 02:36:30;;;;;;;0.00;0.00;;;;;;;;;;1737359;28;20245;-72
2021/12/16 02:37:23;;;;;;;0.00;0.00;;;;;;;;;;1734912;28;20199;-72
2021/12/16 02:38:16;;;;;;;0.00;0.00;;;;;;;;;;1739409;28;20218;-72
2021/12/16 02:39:10;;;;;;;0.00;0.00;;;;;;;;;;1734766;28;20210;-72
2021/12/16 02:40:03;;;;;;;0.00;0.00;;;;;;;;;;1732143;28;20264;-72
2021/12/16 02:40:55;;;;;;;0.00;0.00;;;;;;;;;;1733988;28;20237;-72
2021/12/16 02:41:48;;;;;;;0.00;0.00;;;;;;;;;;1732687;28;20294;-72
2021/12/16 02:42:52;;;;;;;0.00;0.00;;;;;;;;;;1737240;28;20214;-72
2021/12/16 02:44:10;;;;;;;0.00;0.00;;;;;;;;;;1737347;28;20583;-72
2021/12/16 02:48:43;;;;;;;0.00;0.00;;;;;;;;;;1737819;28;20329;-72
2021/12/16 02:49:34;;;;;;;0.00;0.00;;;;;;;;;;1733790;28;20530;-72
2021/12/16 02:50:27;;;;;;;0.00;0.00;;;;;;;;;;1733648;28;20195;-72
2021/12/16 02:51:21;;;;;;;0.00;0.00;;;;;;;;;;1730825;28;20243;-72
2021/12/16 02:52:13;;;;;;;0.00;0.00;;;;;;;;;;1733924;28;20215;-72
2021/12/16 02:53:04;;;;;;;0.00;0.00;;;;;;;;;;1739120;28;20206;-72
2021/12/16 02:53:58;;;;;;;0.00;0.00;;;;;;;;;;1737328;28;20292;-72
2021/12/16 02:54:51;;;;;;;0.00;0.00;;;;;;;;;;1737121;28;20610;-72
2021/12/16 02:55:42;;;;;;;0.00;0.00;;;;;;;;;;1735461;28;20309;-72
2021/12/16 02:56:36;;;;;;;0.00;0.00;;;;;;;;;;1731808;28;20294;-72
2021/12/16 02:57:27;;;;;;;0.00;0.00;;;;;;;;;;1734675;28;20635;-72
2021/12/16 02:58:20;;;;;;;0.03;0.03;;;;;;;;;;1732919;28;20522;-72
2021/12/16 02:59:11;;;;;;;0.00;0.00;;;;;;;;;;1734004;28;20210;-72
2021/12/16 03:00:11;;;;;;;0.00;0.00;;;;;;;;;;1732366;28;20211;-72
2021/12/16 03:01:04;;;;;;;0.00;0.00;;;;;;;;;;1733868;28;20497;-72
2021/12/16 03:01:57;;;;;;;0.00;0.00;;;;;;;;;;1732379;28;20210;-72
2021/12/16 03:02:51;;;;;;;0.00;0.00;;;;;;;;;;1736702;28;20660;-72
2021/12/16 03:03:44;;;;;;;0.00;0.00;;;;;;;;;;1737447;28;20498;-72
2021/12/16 03:04:36;;;;;;;0.00;0.00;;;;;;;;;;1732667;28;20207;-72
2021/12/16 03:05:28;;;;;;;0.00;0.00;;;;;;;;;;1733220;28;20265;-72
2021/12/16 03:06:21;;;;;;;0.00;0.00;;;;;;;;;;1732532;28;20712;-72
2021/12/16 03:07:15;;;;;;;0.00;0.00;;;;;;;;;;1733524;28;20283;-72
2021/12/16 03:08:06;;;;;;;0.00;0.00;;;;;;;;;;1731686;28;20242;-72
2021/12/16 03:09:00;;;;;;;0.00;0.00;;;;;;;;;;1734944;28;20257;-72
2021/12/16 03:11:02;;;;;;;0.00;0.00;;;;;;;;;;1735190;28;20272;-72
2021/12/16 03:12:27;;;;;;;0.00;0.00;;;;;;;;;;1738765;28;20210;-72
2021/12/16 03:13:10;;;;;;;0.00;0.00;;;;;;;;;;1732281;28;20528;-72
2021/12/16 03:14:24;;;;;;;0.00;0.00;;;;;;;;;;1734901;28;20199;-72
2021/12/16 03:15:25;;;;;;;0.00;0.00;;;;;;;;;;1733062;28;20195;-72
2021/12/16 03:16:24;;;;;;;0.00;0.00;;;;;;;;;;1733234;28;20281;-72
2021/12/16 03:17:22;;;;;;;0.00;0.00;;;;;;;;;;1734072;28;20713;-72
2021/12/16 03:18:23;;;;;;;0.00;0.00;;;;;;;;;;1732185;28;20209;-72
2021/12/16 03:19:21;;;;;;;0.00;0.00;;;;;;;;;;1735508;28;20200;-72
2021/12/16 03:20:19;;;;;;;0.00;0.00;;;;;;;;;;1733210;28;20517;-72
2021/12/16 03:21:17;;;;;;;0.00;0.00;;;;;;;;;;1734125;28;20648;-72
2021/12/16 03:22:20;;;;;;;0.00;0.00;;;;;;;;;;1736154;28;20652;-72
2021/12/16 03:23:28;;;;;;;0.00;0.00;;;;;;;;;;1732536;28;20195;-72
2021/12/16 03:24:41;;;;;;;0.00;0.00;;;;;;;;;;1733241;28;20192;-72
2021/12/16 03:25:45;;;;;;;0.00;0.00;;;;;;;;;;1733172;28;20227;-72
2021/12/16 03:31:35;;;;;;;0.00;0.00;;;;;;;;;;1734556;28;20222;-72
2021/12/16 03:35:00;;;;;;;0.00;0.00;;;;;;;;;;1740577;28;20194;-72
2021/12/16 03:36:03;;;;;;;0.00;0.00;;;;;;;;;;1740542;28;20421;-72
2021/12/16 03:37:16;;;;;;;0.00;0.00;;;;;;;;;;1739121;28;20222;-72
2021/12/16 03:38:10;;;;;;;0.00;0.00;;;;;;;;;;1738070;28;20210;-72
2021/12/16 03:39:04;;;;;;;0.00;0.00;;;;;;;;;;1740957;28;20605;-72
2021/12/16 03:39:56;;;;;;;0.00;0.00;;;;;;;;;;1739100;28;20238;-72
2021/12/16 03:40:48;;;;;;;0.00;0.00;;;;;;;;;;1741473;28;20675;-72
2021/12/16 03:41:40;;;;;;;0.00;0.00;;;;;;;;;;1745190;28;20255;-72
2021/12/16 03:42:33;;;;;;;0.00;0.00;;;;;;;;;;1741442;28;20293;-72
2021/12/16 03:43:26;;;;;;;0.00;0.00;;;;;;;;;;1738532;28;20552;-72
2021/12/16 03:44:27;;;;;;;0.05;0.05;;;;;;;;;;1741151;28;20289;-72
2021/12/16 03:46:34;;;;;;;0.00;0.00;;;;;;;;;;1738291;28;20236;-72
2021/12/16 03:47:29;;;;;;;0.00;0.00;;;;;;;;;;1739951;28;20203;-72
2021/12/16 03:48:23;;;;;;;0.00;0.00;;;;;;;;;;1738899;28;20198;-72
2021/12/16 03:49:17;;;;;;;0.00;0.00;;;;;;;;;;1741311;28;20552;-72
2021/12/16 03:50:13;;;;;;;0.00;0.00;;;;;;;;;;1738910;28;20199;-72
2021/12/16 03:51:05;;;;;;;0.00;0.00;;;;;;;;;;1733204;28;20485;-72
2021/12/16 03:52:00;;;;;;;0.00;0.00;;;;;;;;;;1731838;28;20211;-72
2021/12/16 03:52:51;;;;;;;0.00;0.00;;;;;;;;;;1733356;28;20207;-72
2021/12/16 03:53:45;;;;;;;0.00;0.00;;;;;;;;;;1733267;28;20649;-72
2021/12/16 03:54:41;;;;;;;0.00;0.00;;;;;;;;;;1733431;28;20200;-72
2021/12/16 03:55:33;;;;;;;0.00;0.00;;;;;;;;;;1732830;28;20195;-72
2021/12/16 03:56:24;;;;;;;0.10;0.10;;;;;;;;;;1738705;28;20210;-72
2021/12/16 03:57:17;;;;;;;0.00;0.00;;;;;;;;;;1736351;28;20208;-72
2021/12/16 03:58:09;;;;;;;0.00;0.00;;;;;;;;;;1731609;28;20265;-72
2021/12/16 03:59:01;;;;;;;0.00;0.00;;;;;;;;;;1734131;28;20274;-72
2021/12/16 03:59:53;;;;;;;0.00;0.00;;;;;;;;;;1738871;28;20222;-72
2021/12/16 04:00:47;;;;;;;0.00;0.00;;;;;;;;;;1734879;28;20235;-72
2021/12/16 04:01:39;;;;;;;0.00;0.00;;;;;;;;;;1731471;28;20207;-72
2021/12/16 04:02:32;;;;;;;0.00;0.00;;;;;;;;;;1733452;28;20526;-72
2021/12/16 04:03:23;;;;;;;0.00;0.00;;;;;;;;;;1732002;28;20655;-72
2021/12/16 04:04:16;;;;;;;0.00;0.00;;;;;;;;;;1733237;28;20279;-72
2021/12/16 04:05:08;;;;;;;0.00;0.00;;;;;;;;;;1732763;28;20212;-72
2021/12/16 04:06:00;;;;;;;0.00;0.00;;;;;;;;;;1735966;28;20700;-72
2021/12/16 04:06:53;;;;;;;0.00;0.00;;;;;;;;;;1738830;28;20647;-73
2021/12/16 04:07:45;;;;;;;0.00;0.00;;;;;;;;;;1732360;28;20208;-72
2021/12/16 04:08:36;;;;;;;0.10;0.10;;;;;;;;;;1732299;28;20215;-72
2021/12/16 04:09:32;;;;;;;0.00;0.00;;;;;;;;;;1733526;28;20203;-72
2021/12/16 04:10:31;;;;;;;0.00;0.00;;;;;;;;;;1733384;28;20210;-72
2021/12/16 04:11:26;;;;;;;0.00;0.00;;;;;;;;;;1732684;28;20226;-72
2021/12/16 04:12:20;;;;;;;0.00;0.00;;;;;;;;;;1733351;28;20565;-72
2021/12/16 04:13:15;;;;;;;0.00;0.00;;;;;;;;;;1738718;28;20199;-72
2021/12/16 04:14:07;;;;;;;0.00;0.00;;;;;;;;;;1734920;28;20211;-72
2021/12/16 04:15:00;;;;;;;0.00;0.00;;;;;;;;;;1738142;28;20207;-72
2021/12/16 04:15:52;;;;;;;0.00;0.00;;;;;;;;;;1734271;28;20682;-72
2021/12/16 04:16:46;;;;;;;0.00;0.00;;;;;;;;;;1731891;28;20208;-72
2021/12/16 04:17:37;;;;;;;0.00;0.00;;;;;;;;;;1732840;28;20207;-72
2021/12/16 04:18:29;;;;;;;0.00;0.00;;;;;;;;;;1731728;28;20641;-72
2021/12/16 04:19:22;;;;;;;0.03;0.03;;;;;;;;;;1735107;28;20226;-72
2021/12/16 04:20:15;;;;;;;0.00;0.00;;;;;;;;;;1733271;28;20199;-72
2021/12/16 04:21:07;;;;;;;0.00;0.00;;;;;;;;;;1733019;28;20227;-72
2021/12/16 04:22:00;;;;;;;0.00;0.00;;;;;;;;;;1736634;28;20210;-72
2021/12/16 04:22:52;;;;;;;0.00;0.00;;;;;;;;;;1737086;28;20229;-72
2021/12/16 04:23:44;;;;;;;0.00;0.00;;;;;;;;;;1737154;28;20215;-72
2021/12/16 04:24:37;;;;;;;0.00;0.00;;;;;;;;;;1737378;28;20580;-72
2021/12/16 04:25:31;;;;;;;0.00;0.00;;;;;;;;;;1735630;28;20688;-72
2021/12/16 04:26:23;;;;;;;0.00;0.00;;;;;;;;;;1732342;28;20204;-72
2021/12/16 04:27:16;;;;;;;0.00;0.00;;;;;;;;;;1732919;28;20715;-72
2021/12/16 04:28:12;;;;;;;0.00;0.00;;;;;;;;;;1732290;28;20526;-72
2021/12/16 04:29:05;;;;;;;0.00;0.00;;;;;;;;;;1734288;28;20211;-72
2021/12/16 04:29:57;;;;;;;0.00;0.00;;;;;;;;;;1739025;28;20214;-72
2021/12/16 04:30:50;;;;;;;0.00;0.00;;;;;;;;;;1731782;28;20537;-72
2021/12/16 04:31:42;;;;;;;0.00;0.00;;;;;;;;;;1731664;28;20211;-72
2021/12/16 04:32:34;;;;;;;0.00;0.00;;;;;;;;;;1734662;28;20213;-72
2021/12/16 04:33:25;;;;;;;0.00;0.00;;;;;;;;;;1731832;28;20475;-72
2021/12/16 04:34:18;;;;;;;0.00;0.00;;;;;;;;;;1735667;28;20214;-72
2021/12/16 04:35:09;;;;;;;0.00;0.00;;;;;;;;;;1733409;28;20214;-72
2021/12/16 04:36:02;;;;;;;0.00;0.00;;;;;;;;;;1732423;28;20584;-72
2021/12/16 04:36:54;;;;;;;0.00;0.00;;;;;;;;;;1733060;28;20486;-72
2021/12/16 04:37:46;;;;;;;0.00;0.00;;;;;;;;;;1732646;28;20200;-72
2021/12/16 04:38:39;;;;;;;0.00;0.00;;;;;;;;;;1732545;28;20215;-72
2021/12/16 04:39:31;;;;;;;0.00;0.00;;;;;;;;;;1733983;28;20730;-72
2021/12/16 04:40:27;;;;;;;0.00;0.00;;;;;;;;;;1733384;28;20690;-72
2021/12/16 04:41:18;;;;;;;0.00;0.00;;;;;;;;;;1731911;28;20587;-72
2021/12/16 04:42:11;;;;;;;0.00;0.00;;;;;;;;;;1734204;28;20529;-72
2021/12/16 04:43:02;;;;;;;0.00;0.00;;;;;;;;;;1731830;28;20203;-72
2021/12/16 04:43:56;;;;;;;0.00;0.00;;;;;;;;;;1733352;28;20664;-72
2021/12/16 04:44:48;;;;;;;0.00;0.00;;;;;;;;;;1732278;28;20624;-72
2021/12/16 04:45:40;;;;;;;0.00;0.00;;;;;;;;;;1733836;28;20284;-72
2021/12/16 04:46:31;;;;;;;0.00;0.00;;;;;;;;;;1732265;28;20200;-72
2021/12/16 04:47:24;;;;;;;0.00;0.00;;;;;;;;;;1733422;28;20199;-72
2021/12/16 04:48:15;;;;;;;0.00;0.00;;;;;;;;;;1731209;28;20642;-72
2021/12/16 04:49:08;;;;;;;0.00;0.00;;;;;;;;;;1733846;28;20231;-72
2021/12/16 04:49:59;;;;;;;0.00;0.00;;;;;;;;;;1738567;28;20211;-73
2021/12/16 04:50:52;;;;;;;0.00;0.00;;;;;;;;;;1734942;28;20412;-72
2021/12/16 04:51:45;;;;;;;0.00;0.00;;;;;;;;;;1733338;28;20226;-72
2021/12/16 04:52:37;;;;;;;0.00;0.00;;;;;;;;;;1737282;28;20624;-72
2021/12/16 04:53:28;;;;;;;0.00;0.00;;;;;;;;;;1740342;28;20263;-72
2021/12/16 04:54:23;;;;;;;0.00;0.00;;;;;;;;;;1735504;28;20252;-72
2021/12/16 04:55:15;;;;;;;0.00;0.00;;;;;;;;;;1737299;28;20497;-72
2021/12/16 04:56:09;;;;;;;0.00;0.00;;;;;;;;;;1736592;28;20261;-72
2021/12/16 04:57:01;;;;;;;0.00;0.00;;;;;;;;;;1739497;28;20211;-72
2021/12/16 04:57:54;;;;;;;0.00;0.00;;;;;;;;;;1735145;28;20322;-72
2021/12/16 04:58:47;;;;;;;0.00;0.00;;;;;;;;;;1734687;28;20207;-72
2021/12/16 04:59:40;;;;;;;0.00;0.00;;;;;;;;;;1732729;28;20204;-72
2021/12/16 05:00:31;;;;;;;0.00;0.00;;;;;;;;;;1733305;28;20208;-72
2021/12/16 05:01:23;;;;;;;0.00;0.00;;;;;;;;;;1734032;28;20600;-72
2021/12/16 05:02:16;;;;;;;0.00;0.00;;;;;;;;;;1734347;28;20206;-72
2021/12/16 05:03:08;;;;;;;0.00;0.00;;;;;;;;;;1738176;28;20526;-73
2021/12/16 05:03:59;;;;;;;0.00;0.00;;;;;;;;;;1737286;28;20219;-72
2021/12/16 05:04:51;;;;;;;0.00;0.00;;;;;;;;;;1733069;28;20242;-72
2021/12/16 05:05:43;;;;;;;0.00;0.00;;;;;;;;;;1734218;28;20278;-72
2021/12/16 05:06:35;;;;;;;0.00;0.00;;;;;;;;;;1733627;28;20302;-72
2021/12/16 05:07:26;;;;;;;0.00;0.00;;;;;;;;;;1735323;28;20218;-72
2021/12/16 05:08:19;;;;;;;0.00;0.00;;;;;;;;;;1733965;28;20199;-72
2021/12/16 05:09:13;;;;;;;0.00;0.00;;;;;;;;;;1736198;28;20214;-72
2021/12/16 05:10:10;;;;;;;0.00;0.00;;;;;;;;;;1733277;28;20204;-72
2021/12/16 05:11:04;;;;;;;0.00;0.00;;;;;;;;;;1734787;28;20684;-72
2021/12/16 05:11:57;;;;;;;0.00;0.00;;;;;;;;;;1732680;28;20205;-72
2021/12/16 05:12:50;;;;;;;0.00;0.00;;;;;;;;;;1735449;28;20203;-72
2021/12/16 05:13:42;;;;;;;0.00;0.00;;;;;;;;;;1734032;28;20261;-72
2021/12/16 05:14:34;;;;;;;0.00;0.00;;;;;;;;;;1734479;28;20204;-72
2021/12/16 05:15:30;;;;;;;0.00;0.00;;;;;;;;;;1733841;28;20542;-72
2021/12/16 05:16:21;;;;;;;0.00;0.00;;;;;;;;;;1735072;28;20203;-72
2021/12/16 05:17:24;;;;;;;0.03;0.03;;;;;;;;;;1733405;28;20647;-72
2021/12/16 05:18:20;;;;;;;0.00;0.00;;;;;;;;;;1732435;28;20242;-72
2021/12/16 05:19:13;;;;;;;0.00;0.00;;;;;;;;;;1736498;28;20264;-72
2021/12/16 05:20:09;;;;;;;0.00;0.00;;;;;;;;;;1733082;28;20219;-72
2021/12/16 05:21:04;;;;;;;0.00;0.00;;;;;;;;;;1735187;28;20295;-72
2021/12/16 05:24:12;;;;;;;0.00;0.00;;;;;;;;;;1737443;28;20211;-72
2021/12/16 05:24:25;;;;;;;0.00;0.00;;;;;;;;;;1736179;28;20547;-72
2021/12/16 05:25:25;;;;;;;0.00;0.00;;;;;;;;;;1734828;28;20187;-72
2021/12/16 05:26:20;;;;;;;0.00;0.00;;;;;;;;;;1734624;28;20238;-72
2021/12/16 05:27:12;;;;;;;0.00;0.00;;;;;;;;;;1733884;28;20621;-72
2021/12/16 05:28:05;;;;;;;0.00;0.00;;;;;;;;;;1734650;28;20219;-72
2021/12/16 05:28:58;;;;;;;0.00;0.00;;;;;;;;;;1734336;28;20214;-72
2021/12/16 05:29:50;;;;;;;0.00;0.00;;;;;;;;;;1732292;28;20661;-72
2021/12/16 05:30:42;;;;;;;0.00;0.00;;;;;;;;;;1734307;28;20238;-72
2021/12/16 05:31:34;;;;;;;0.00;0.00;;;;;;;;;;1734222;28;20214;-72
2021/12/16 05:32:25;;;;;;;0.00;0.00;;;;;;;;;;1736124;28;20619;-72
2021/12/16 05:33:18;;;;;;;0.00;0.00;;;;;;;;;;1732804;28;20249;-72
2021/12/16 05:34:09;;;;;;;0.00;0.00;;;;;;;;;;1735512;28;20214;-72
2021/12/16 05:35:01;;;;;;;0.00;0.00;;;;;;;;;;1739590;28;20684;-72
2021/12/16 05:35:53;;;;;;;0.00;0.00;;;;;;;;;;1733196;28;20246;-72
2021/12/16 05:36:46;;;;;;;0.00;0.00;;;;;;;;;;1734159;28;20269;-72
2021/12/16 05:37:37;;;;;;;0.00;0.00;;;;;;;;;;1734500;28;20215;-72
2021/12/16 05:38:30;;;;;;;0.00;0.00;;;;;;;;;;1733008;28;20219;-72
2021/12/16 05:39:22;;;;;;;0.00;0.00;;;;;;;;;;1735950;28;20313;-72
2021/12/16 05:40:16;;;;;;;0.00;0.00;;;;;;;;;;1733289;28;20207;-72
2021/12/16 05:41:09;;;;;;;0.00;0.00;;;;;;;;;;1734953;28;20231;-72
2021/12/16 05:42:01;;;;;;;0.00;0.00;;;;;;;;;;1732882;28;20203;-72
2021/12/16 05:42:55;;;;;;;0.00;0.00;;;;;;;;;;1735219;28;20215;-72
2021/12/16 05:43:47;;;;;;;0.00;0.00;;;;;;;;;;1734601;28;20207;-72
2021/12/16 05:44:38;;;;;;;0.00;0.00;;;;;;;;;;1733611;28;20204;-72
2021/12/16 05:45:31;;;;;;;0.00;0.00;;;;;;;;;;1734588;28;20245;-72
2021/12/16 05:46:22;;;;;;;0.00;0.00;;;;;;;;;;1733500;28;20238;-72
2021/12/16 05:47:15;;;;;;;0.10;0.10;;;;;;;;;;1733581;28;20200;-72
2021/12/16 05:48:08;;;;;;;0.00;0.00;;;;;;;;;;1732581;28;20778;-72
2021/12/16 05:49:02;;;;;;;0.00;0.00;;;;;;;;;;1734465;28;20798;-72
2021/12/16 05:49:53;;;;;;;0.00;0.00;;;;;;;;;;1734382;28;20207;-72
2021/12/16 05:50:46;;;;;;;0.00;0.00;;;;;;;;;;1734208;28;20272;-72
2021/12/16 05:51:42;;;;;;;0.00;0.00;;;;;;;;;;1733413;28;20231;-72
2021/12/16 05:52:34;;;;;;;0.00;0.00;;;;;;;;;;1734381;28;20210;-72
2021/12/16 05:53:25;;;;;;;0.00;0.00;;;;;;;;;;1732408;28;20214;-72
2021/12/16 05:54:18;;;;;;;0.00;0.00;;;;;;;;;;1736468;28;20269;-72
2021/12/16 05:55:10;;;;;;;0.00;0.00;;;;;;;;;;1735616;28;20200;-72
2021/12/16 05:56:04;;;;;;;0.00;0.00;;;;;;;;;;1735268;28;20541;-72
2021/12/16 05:56:55;;;;;;;0.00;0.00;;;;;;;;;;1732832;28;20534;-72
2021/12/16 05:57:48;;;;;;;0.00;0.00;;;;;;;;;;1735605;28;20647;-72
2021/12/16 05:58:40;;;;;;;0.00;0.00;;;;;;;;;;1733199;28;20644;-72
2021/12/16 05:59:33;;;;;;;0.00;0.00;;;;;;;;;;1734568;28;20207;-72
2021/12/16 06:00:26;;;;;;;0.00;0.00;;;;;;;;;;1733714;28;20510;-72
2021/12/16 06:01:20;;;;;;;0.00;0.00;;;;;;;;;;1732812;28;20642;-72
2021/12/16 06:02:12;;;;;;;0.00;0.00;;;;;;;;;;1733913;28;20583;-72
2021/12/16 06:03:04;;;;;;;0.00;0.00;;;;;;;;;;1734804;28;20724;-72
2021/12/16 06:03:56;;;;;;;0.00;0.00;;;;;;;;;;1734086;28;20577;-71
2021/12/16 06:04:50;;;;;;;0.00;0.00;;;;;;;;;;1737311;28;20310;-71
2021/12/16 06:05:41;;;;;;;0.00;0.00;;;;;;;;;;1735707;28;20292;-71
2021/12/16 06:06:34;;;;;;;0.00;0.00;;;;;;;;;;1732898;28;20246;-71
2021/12/16 06:07:25;;;;;;;0.00;0.00;;;;;;;;;;1734167;28;20241;-71
2021/12/16 06:08:17;;;;;;;0.00;0.00;;;;;;;;;;1739802;28;20206;-71
2021/12/16 06:09:09;;;;;;;0.00;0.00;;;;;;;;;;1735564;28;20218;-71
2021/12/16 06:10:01;;;;;;;0.00;0.00;;;;;;;;;;1732804;28;20544;-71
2021/12/16 06:12:06;;;;;;;0.00;0.00;;;;;;;;;;1734256;28;20235;-71
2021/12/16 06:12:57;;;;;;;0.00;0.00;;;;;;;;;;1732446;28;20208;-71
2021/12/16 06:14:04;;;;;;;0.00;0.00;;;;;;;;;;1734049;28;20199;-71
2021/12/16 06:15:13;;;;;;;0.00;0.00;;;;;;;;;;1732899;28;20377;-71
2021/12/16 06:26:45;;;;;;;0.00;0.00;;;;;;;;;;1738405;28;20280;-71
2021/12/16 06:27:41;;;;;;;0.00;0.00;;;;;;;;;;1735880;28;20576;-71
2021/12/16 06:28:36;;;;;;;0.00;0.00;;;;;;;;;;1739043;28;20188;-72
2021/12/16 06:29:29;;;;;;;0.00;0.00;;;;;;;;;;1733134;28;20214;-72
2021/12/16 06:30:22;;;;;;;0.00;0.00;;;;;;;;;;1732573;28;20286;-72
2021/12/16 06:31:15;;;;;;;0.00;0.00;;;;;;;;;;1733685;28;20243;-72
2021/12/16 06:32:07;;;;;;;0.00;0.00;;;;;;;;;;1734493;28;20214;-72
2021/12/16 06:32:59;;;;;;;0.00;0.00;;;;;;;;;;1734116;28;20465;-72
2021/12/16 06:33:50;;;;;;;0.00;0.00;;;;;;;;;;1733828;28;20215;-72
2021/12/16 06:34:43;;;;;;;0.00;0.00;;;;;;;;;;1734273;28;20199;-72
2021/12/16 06:35:35;;;;;;;0.00;0.00;;;;;;;;;;1733809;28;20269;-72
2021/12/16 06:36:27;;;;;;;0.00;0.00;;;;;;;;;;1732327;28;20207;-72
2021/12/16 06:37:19;;;;;;;0.00;0.00;;;;;;;;;;1734051;28;20206;-72
2021/12/16 06:38:11;;;;;;;0.00;0.00;;;;;;;;;;1739498;28;20694;-72
2021/12/16 06:39:03;;;;;;;0.00;0.00;;;;;;;;;;1736407;28;20211;-72
2021/12/16 06:39:55;;;;;;;0.00;0.00;;;;;;;;;;1732763;28;20230;-72
2021/12/16 06:40:46;;;;;;;0.00;0.00;;;;;;;;;;1733842;28;20243;-72
2021/12/16 06:41:38;;;;;;;0.00;0.00;;;;;;;;;;1739352;28;20332;-72
2021/12/16 06:42:30;;;;;;;0.00;0.00;;;;;;;;;;1735234;28;20638;-72
2021/12/16 06:43:23;;;;;;;0.00;0.00;;;;;;;;;;1732731;28;20195;-72
2021/12/16 06:44:20;;;;;;;0.00;0.00;;;;;;;;;;1734657;28;20215;-72
2021/12/16 06:45:19;;;;;;;0.00;0.00;;;;;;;;;;1733085;28;20180;-72
2021/12/16 06:46:14;;;;;;;0.00;0.00;;;;;;;;;;1732765;28;20331;-72
2021/12/16 06:47:11;;;;;;;0.00;0.00;;;;;;;;;;1731515;28;20259;-72
2021/12/16 06:48:06;;;;;;;0.00;0.00;;;;;;;;;;1732653;28;20200;-72
2021/12/16 06:49:00;;;;;;;0.00;0.00;;;;;;;;;;1733566;28;20583;-72
2021/12/16 06:49:53;;;;;;;0.00;0.00;;;;;;;;;;1739366;28;20234;-72
2021/12/16 06:50:50;;;;;;;0.00;0.00;;;;;;;;;;1735316;28;21516;-72
2021/12/16 06:51:48;;;;;;;0.00;0.00;;;;;;;;;;1732119;28;20240;-72
2021/12/16 06:52:46;;;;;;;0.00;0.00;;;;;;;;;;1735883;28;20194;-72
2021/12/16 06:53:48;;;;;;;0.00;0.00;;;;;;;;;;1738436;28;20203;-72
2021/12/16 06:54:53;;;;;;;0.00;0.00;;;;;;;;;;1732490;28;20203;-72
2021/12/16 06:55:51;;;;;;;0.00;0.00;;;;;;;;;;1734577;28;20234;-72
2021/12/16 06:56:50;;;;;;;0.05;0.05;;;;;;;;;;1739216;28;20195;-72
2021/12/16 06:57:49;;;;;;;0.08;0.08;;;;;;;;;;1733330;28;20207;-72
2021/12/16 06:58:46;;;;;;;0.00;0.00;;;;;;;;;;1733894;28;20191;-72
2021/12/16 06:59:42;;;;;;;0.00;0.00;;;;;;;;;;1737851;28;20203;-72
2021/12/16 07:00:40;;;;;;;0.00;0.00;;;;;;;;;;1735036;28;20242;-72
2021/12/16 07:01:38;;;;;;;0.00;0.00;;;;;;;;;;1732420;28;20200;-72
2021/12/16 07:02:44;;;;;;;0.00;0.00;;;;;;;;;;1734115;28;20594;-72
2021/12/16 07:03:46;;;;;;;0.00;0.00;;;;;;;;;;1731876;28;20219;-72
2021/12/16 07:04:37;;;;;;;0.00;0.00;;;;;;;;;;1733447;28;20401;-72
2021/12/16 07:05:31;;;;;;;0.00;0.00;;;;;;;;;;1733112;28;20196;-72
2021/12/16 07:06:23;;;;;;;0.00;0.00;;;;;;;;;;1738686;28;20210;-72
2021/12/16 07:07:16;;;;;;;0.00;0.00;;;;;;;;;;1736528;28;20250;-72
2021/12/16 07:08:09;;;;;;;0.00;0.00;;;;;;;;;;1732486;28;20253;-72
2021/12/16 07:09:03;;;;;;;0.00;0.00;;;;;;;;;;1733728;28;20217;-72
2021/12/16 07:09:54;;;;;;;0.00;0.00;;;;;;;;;;1738517;28;20490;-72
2021/12/16 07:10:47;;;;;;;0.00;0.00;;;;;;;;;;1735065;28;20234;-72
2021/12/16 07:11:41;;;;;;;0.00;0.00;;;;;;;;;;1732176;28;20618;-72
2021/12/16 07:12:39;;;;;;;0.00;0.00;;;;;;;;;;1734025;28;20203;-72
2021/12/16 07:13:35;;;;;;;0.00;0.00;;;;;;;;;;1731565;28;20250;-72
2021/12/16 07:14:36;;;;;;;0.00;0.00;;;;;;;;;;1736998;28;20472;-72
2021/12/16 07:15:28;;;;;;;0.00;0.00;;;;;;;;;;1736351;28;20513;-72
2021/12/16 07:16:22;;;;;;;0.00;0.00;;;;;;;;;;1732881;28;20207;-72
2021/12/16 07:17:14;;;;;;;0.00;0.00;;;;;;;;;;1733208;28;20644;-72
2021/12/16 07:18:07;;;;;;;0.00;0.00;;;;;;;;;;1732301;28;20719;-72